Terminal Aerodrome Forecast
Issued by NWS

Home | Current Version | Previous Version | Text Only | Print | Product List | Glossary On
Versions: 1 2 3 4 5 6 7 8 9 10 11 12 13 14 15
199
FTUS43 KAPX 241733 AAC
TAFMBL
TAF AMD
KMBL 241733Z 2418/2518 22008KT P6SM BKN025
     FM242200 22010KT P6SM VCTS BKN025CB
     FM250000 23009KT P6SM BKN040
     FM250300 29007KT P6SM FEW200
     FM251600 30010KT P6SM FEW040=

USA.gov is the U.S. government's official web portal to all federal, state and local government web resources and services.